createdAt,value
2017-08-20T00:00:08.463Z,6.47
2017-08-20T00:02:35.049Z,7.33
2017-08-20T00:05:01.783Z,5.73
2017-08-20T00:07:28.404Z,11.63
2017-08-20T00:09:54.993Z,6.23
2017-08-20T00:12:21.592Z,8.20
2017-08-20T00:14:48.210Z,6.23
2017-08-20T00:17:14.807Z,10.03
2017-08-20T00:19:41.501Z,6.40
2017-08-20T00:22:08.097Z,6.53
2017-08-20T00:24:34.730Z,5.37
2017-08-20T00:27:01.339Z,9.13
2017-08-20T00:29:27.923Z,8.20
2017-08-20T00:31:54.509Z,4.53
2017-08-20T00:34:21.119Z,5.47
2017-08-20T00:36:47.704Z,6.80
2017-08-20T00:39:14.290Z,4.80
2017-08-20T00:41:40.891Z,5.00
2017-08-20T00:44:07.481Z,7.07
2017-08-20T00:46:34.249Z,6.67
2017-08-20T00:49:01.079Z,7.50
2017-08-20T00:51:27.654Z,6.63
2017-08-20T00:53:54.247Z,4.80
2017-08-20T00:56:20.860Z,7.10
2017-08-20T00:58:47.442Z,9.10
2017-08-20T01:01:14.036Z,12.10
2017-08-20T01:03:40.639Z,5.13
2017-08-20T01:06:07.232Z,5.50
2017-08-20T01:08:34.013Z,8.10
2017-08-20T01:11:00.606Z,7.70
2017-08-20T01:13:27.199Z,8.37
2017-08-20T01:15:53.787Z,5.87
2017-08-20T01:18:20.387Z,4.57
2017-08-20T01:20:47.028Z,6.03
2017-08-20T01:23:13.599Z,5.30
2017-08-20T01:25:40.199Z,7.77
2017-08-20T01:28:06.831Z,5.30
2017-08-20T01:30:33.435Z,5.40
2017-08-20T01:33:00.056Z,8.43
2017-08-20T01:35:26.643Z,4.40
2017-08-20T01:37:53.236Z,5.17
2017-08-20T01:40:19.839Z,5.03
2017-08-20T01:42:46.422Z,5.80
2017-08-20T01:45:13.015Z,4.90
2017-08-20T01:47:39.623Z,5.97
2017-08-20T01:50:06.220Z,6.33
2017-08-20T01:52:32.859Z,7.03
2017-08-20T01:54:59.485Z,4.77
2017-08-20T01:57:26.074Z,11.60
2017-08-20T01:59:52.655Z,3.90
2017-08-20T02:02:19.276Z,10.17
2017-08-20T02:04:45.858Z,6.17
2017-08-20T02:07:12.450Z,5.27
2017-08-20T02:09:39.147Z,7.10
2017-08-20T02:12:05.777Z,4.40
2017-08-20T02:14:32.741Z,7.40
2017-08-20T02:16:59.360Z,3.73
2017-08-20T02:19:25.955Z,9.00
2017-08-20T02:21:52.543Z,3.70
2017-08-20T02:24:19.147Z,6.83
2017-08-20T02:26:45.738Z,5.10
2017-08-20T02:29:12.322Z,12.13
2017-08-20T02:31:38.938Z,4.03
2017-08-20T02:34:05.526Z,7.77
2017-08-20T02:36:32.133Z,4.90
2017-08-20T02:38:58.747Z,4.80
2017-08-20T02:41:25.352Z,5.20
2017-08-20T02:43:51.939Z,6.23
2017-08-20T02:46:18.543Z,6.30
2017-08-20T02:48:45.128Z,7.03
2017-08-20T02:51:11.713Z,6.90
2017-08-20T02:53:38.317Z,9.17
2017-08-20T02:56:04.921Z,6.43
2017-08-20T02:58:31.694Z,7.27
2017-08-20T03:00:58.299Z,5.70
2017-08-20T03:03:24.887Z,8.50
2017-08-20T03:05:51.471Z,8.87
2017-08-20T03:08:18.071Z,7.83
2017-08-20T03:10:44.665Z,12.77
2017-08-20T03:13:11.246Z,9.50
2017-08-20T03:15:37.851Z,9.67
2017-08-20T03:18:04.449Z,12.00
2017-08-20T03:20:31.081Z,7.70
2017-08-20T03:22:57.727Z,13.03
2017-08-20T03:25:24.347Z,6.30
2017-08-20T03:27:50.935Z,9.90
2017-08-20T03:30:17.537Z,9.50
2017-08-20T03:32:44.121Z,8.23
2017-08-20T03:35:10.711Z,7.60
2017-08-20T03:37:37.336Z,14.37
2017-08-20T03:40:03.935Z,9.63
2017-08-20T03:42:30.587Z,7.07
2017-08-20T03:44:57.182Z,10.67
2017-08-20T03:47:23.771Z,12.10
2017-08-20T03:49:50.354Z,6.43
2017-08-20T03:52:16.955Z,11.03
2017-08-20T03:54:43.543Z,9.60
2017-08-20T03:57:10.128Z,9.40
2017-08-20T03:59:36.842Z,10.73
2017-08-20T04:02:03.452Z,8.40
2017-08-20T04:04:30.066Z,7.27
2017-08-20T04:06:56.658Z,13.03
2017-08-20T04:09:23.247Z,8.57
2017-08-20T04:11:49.843Z,11.47
2017-08-20T04:14:16.482Z,8.23
2017-08-20T04:16:43.071Z,7.47
2017-08-20T04:19:09.663Z,7.23
2017-08-20T04:21:36.304Z,7.60
2017-08-20T04:24:02.983Z,6.87
2017-08-20T04:26:29.571Z,8.37
2017-08-20T04:28:56.188Z,10.33
2017-08-20T04:31:22.772Z,11.73
2017-08-20T04:33:49.359Z,11.23
2017-08-20T04:36:15.960Z,16.10
2017-08-20T04:38:42.548Z,11.10
2017-08-20T04:41:09.148Z,7.27
2017-08-20T04:43:35.766Z,17.43
2017-08-20T04:46:02.391Z,7.93
2017-08-20T04:48:28.989Z,11.03
2017-08-20T04:50:55.680Z,10.23
2017-08-20T04:53:22.312Z,9.73
2017-08-20T04:55:48.885Z,13.17
2017-08-20T04:58:15.494Z,11.80
2017-08-20T05:00:42.079Z,9.20
2017-08-20T05:03:08.674Z,14.37
2017-08-20T05:05:35.278Z,17.83
2017-08-20T05:08:01.883Z,11.20
2017-08-20T05:10:28.498Z,13.17
2017-08-20T05:12:55.109Z,8.20
2017-08-20T05:15:21.711Z,10.10
2017-08-20T05:17:48.294Z,11.37
2017-08-20T05:20:14.895Z,9.07
2017-08-20T05:22:41.487Z,10.90
2017-08-20T05:25:08.071Z,10.37
2017-08-20T05:27:34.688Z,12.33
2017-08-20T05:30:01.291Z,12.50
2017-08-20T05:32:27.898Z,13.07
2017-08-20T05:34:54.563Z,16.40
2017-08-20T05:37:21.181Z,12.63
2017-08-20T05:39:47.963Z,11.30
2017-08-20T05:42:14.563Z,12.80
2017-08-20T05:44:41.193Z,9.10
2017-08-20T05:47:07.779Z,16.27
2017-08-20T05:49:34.424Z,12.20
2017-08-20T05:52:07.560Z,9.57
2017-08-20T05:54:34.151Z,11.87
2017-08-20T05:57:00.735Z,12.43
2017-08-20T05:59:27.346Z,13.63
2017-08-20T06:01:53.942Z,15.90
2017-08-20T06:04:20.571Z,13.70
2017-08-20T06:06:47.169Z,13.83
2017-08-20T06:09:13.780Z,18.63
2017-08-20T06:11:40.371Z,10.07
2017-08-20T06:14:06.988Z,10.37
2017-08-20T06:16:33.583Z,17.73
2017-08-20T06:19:00.174Z,10.93
2017-08-20T06:21:26.763Z,12.50
2017-08-20T06:23:53.374Z,11.63
2017-08-20T06:26:19.975Z,15.13
2017-08-20T06:28:46.575Z,13.07
2017-08-20T06:31:13.170Z,8.93
2017-08-20T06:33:39.762Z,13.57
2017-08-20T06:36:06.350Z,11.43
2017-08-20T06:38:33.008Z,15.07
2017-08-20T06:40:59.603Z,12.90
2017-08-20T06:43:26.197Z,19.30
2017-08-20T06:45:52.815Z,20.07
2017-08-20T06:48:19.405Z,15.43
2017-08-20T06:50:46.004Z,13.47
2017-08-20T06:53:12.623Z,11.33
2017-08-20T06:55:39.206Z,16.07
2017-08-20T06:58:05.801Z,18.27
2017-08-20T07:00:32.407Z,18.13
2017-08-20T07:02:58.998Z,18.53
2017-08-20T07:05:25.591Z,21.97
2017-08-20T07:07:52.495Z,16.53
2017-08-20T07:10:19.075Z,14.00
2017-08-20T07:12:45.669Z,12.10
2017-08-20T07:15:12.275Z,18.70
2017-08-20T07:17:38.927Z,15.27
2017-08-20T07:20:05.514Z,12.90
2017-08-20T07:22:32.131Z,16.80
2017-08-20T07:24:58.723Z,20.60
2017-08-20T07:27:25.311Z,14.03
2017-08-20T07:29:51.976Z,19.20
2017-08-20T07:32:18.559Z,21.47
2017-08-20T07:34:45.138Z,24.60
2017-08-20T07:37:11.758Z,17.40
2017-08-20T07:39:38.356Z,22.50
2017-08-20T07:42:04.938Z,21.23
2017-08-20T07:44:31.747Z,19.83
2017-08-20T07:46:58.362Z,18.97
2017-08-20T07:49:24.946Z,21.13
2017-08-20T07:51:51.664Z,19.60
2017-08-20T07:54:18.252Z,19.80
2017-08-20T07:56:44.847Z,23.50
2017-08-20T07:59:11.451Z,19.07
2017-08-20T08:01:38.117Z,20.60
2017-08-20T08:04:04.687Z,25.87
2017-08-20T08:06:31.295Z,22.83
2017-08-20T08:09:04.191Z,24.63
2017-08-20T08:11:30.921Z,19.87
2017-08-20T08:13:57.562Z,22.30
2017-08-20T08:16:24.170Z,21.67
2017-08-20T08:18:50.777Z,25.27
2017-08-20T08:21:17.365Z,23.37
2017-08-20T08:23:43.952Z,18.77
2017-08-20T08:26:10.560Z,27.40
2017-08-20T08:28:37.150Z,27.30
2017-08-20T08:31:03.746Z,26.07
2017-08-20T08:33:30.350Z,23.83
2017-08-20T08:35:56.947Z,13.73
2017-08-20T08:38:23.535Z,16.23
2017-08-20T08:40:50.238Z,26.97
2017-08-20T08:43:16.872Z,17.67
2017-08-20T08:45:43.466Z,19.63
2017-08-20T08:48:10.208Z,19.43
2017-08-20T08:50:37.035Z,15.67
2017-08-20T08:53:03.782Z,26.47
2017-08-20T08:55:30.579Z,12.97
2017-08-20T08:57:57.277Z,18.13
2017-08-20T09:00:24.295Z,13.07
2017-08-20T09:02:51.146Z,16.03
2017-08-20T09:05:17.719Z,16.17
2017-08-20T09:07:44.425Z,17.60
2017-08-20T09:10:11.042Z,17.67
2017-08-20T09:12:37.723Z,17.90
2017-08-20T09:15:04.408Z,18.83
2017-08-20T09:17:31.073Z,18.50
2017-08-20T09:19:57.823Z,18.67
2017-08-20T09:22:24.922Z,19.67
2017-08-20T09:24:51.954Z,19.70
2017-08-20T09:27:18.659Z,25.70
2017-08-20T09:29:45.355Z,20.17
2017-08-20T09:32:11.959Z,18.00
2017-08-20T09:34:38.565Z,21.47
2017-08-20T09:37:05.151Z,15.67
2017-08-20T09:39:31.915Z,18.40
2017-08-20T09:41:58.607Z,14.07
2017-08-20T09:44:25.537Z,12.10
2017-08-20T09:46:52.210Z,16.97
2017-08-20T09:49:18.974Z,12.00
2017-08-20T09:51:45.689Z,12.50
2017-08-20T09:54:12.331Z,15.83
2017-08-20T09:56:38.919Z,18.37
2017-08-20T09:59:05.507Z,18.93
2017-08-20T10:01:32.110Z,16.73
2017-08-20T10:03:58.759Z,15.03
2017-08-20T10:06:25.345Z,13.17
2017-08-20T10:08:51.973Z,15.93
2017-08-20T10:11:18.564Z,10.90
2017-08-20T10:13:45.150Z,12.23
2017-08-20T10:16:11.760Z,15.90
2017-08-20T10:18:38.355Z,12.70
2017-08-20T10:35:47.996Z,10.07
2017-08-20T10:38:19.925Z,17.77
2017-08-20T10:43:43.399Z,9.13
2017-08-20T10:49:14.345Z,11.10
2017-08-20T10:54:46.454Z,13.30
2017-08-20T10:57:35.718Z,11.83
2017-08-20T11:18:05.021Z,8.53
2017-08-20T11:26:37.009Z,8.97
2017-08-20T11:35:16.113Z,7.40
2017-08-20T11:37:49.169Z,9.03
2017-08-20T11:40:32.988Z,14.53
2017-08-20T11:43:16.938Z,10.10
2017-08-20T11:54:37.884Z,10.03
2017-08-20T12:06:12.139Z,16.53
2017-08-20T12:08:41.975Z,4.27
2017-08-20T12:11:08.676Z,10.63
2017-08-20T12:13:35.303Z,9.07
2017-08-20T12:16:01.904Z,6.20
2017-08-20T12:18:28.491Z,6.87
2017-08-20T12:20:55.095Z,6.87
2017-08-20T12:23:21.712Z,4.43
2017-08-20T12:25:48.287Z,6.40
2017-08-20T12:28:14.894Z,4.33
2017-08-20T12:30:41.486Z,6.53
2017-08-20T12:33:08.076Z,2.47
2017-08-20T12:35:34.759Z,6.33
2017-08-20T12:38:01.348Z,10.47
2017-08-20T12:40:27.979Z,7.40
2017-08-20T12:42:54.571Z,4.53
2017-08-20T12:45:21.198Z,5.77
2017-08-20T12:47:47.791Z,4.70
2017-08-20T12:50:14.382Z,6.47
2017-08-20T12:52:40.987Z,6.50
2017-08-20T12:55:07.575Z,7.50
2017-08-20T12:57:34.171Z,5.37
2017-08-20T13:00:00.776Z,5.70
2017-08-20T13:02:27.364Z,5.10
2017-08-20T13:04:54.148Z,4.83
2017-08-20T13:10:04.877Z,8.23
2017-08-20T13:12:31.450Z,2.77
2017-08-20T13:14:58.020Z,6.87
2017-08-20T13:17:24.772Z,8.10
2017-08-20T13:19:51.405Z,4.50
2017-08-20T13:22:17.974Z,5.93
2017-08-20T13:24:44.941Z,4.30
2017-08-20T13:27:11.512Z,5.33
2017-08-20T13:29:38.093Z,5.43
2017-08-20T13:32:04.689Z,7.00
2017-08-20T13:34:32.255Z,6.63
2017-08-20T13:36:58.810Z,4.30
2017-08-20T13:39:25.906Z,6.00
2017-08-20T13:41:52.480Z,7.20
2017-08-20T13:44:19.044Z,5.50
2017-08-20T13:46:45.660Z,4.50
2017-08-20T13:49:12.273Z,5.50
2017-08-20T13:51:38.821Z,8.43
2017-08-20T13:54:05.545Z,5.93
2017-08-20T13:56:32.116Z,5.80
2017-08-20T13:58:58.689Z,4.63
2017-08-20T14:01:25.310Z,6.83
2017-08-20T14:03:51.904Z,6.83
2017-08-20T14:06:18.558Z,6.63
2017-08-20T14:08:45.243Z,3.43
2017-08-20T14:11:11.813Z,9.23
2017-08-20T14:13:38.375Z,3.67
2017-08-20T14:16:05.328Z,4.30
2017-08-20T14:18:31.931Z,8.80
2017-08-20T14:20:58.522Z,5.70
2017-08-20T14:23:25.240Z,1.77
2017-08-20T14:25:52.327Z,4.50
2017-08-20T14:28:26.628Z,4.80
2017-08-20T14:30:53.268Z,4.50
2017-08-20T14:33:19.838Z,3.40
2017-08-20T14:35:46.812Z,3.03
2017-08-20T14:38:13.386Z,6.47
2017-08-20T14:40:39.971Z,9.33
2017-08-20T14:43:07.095Z,3.70
2017-08-20T14:45:33.674Z,4.37
2017-08-20T14:48:00.248Z,7.83
2017-08-20T14:50:27.272Z,6.20
2017-08-20T14:52:53.861Z,4.67
2017-08-20T14:55:23.352Z,4.37
2017-08-20T14:57:49.927Z,5.97
2017-08-20T15:00:16.572Z,4.93
2017-08-20T15:02:43.148Z,4.60
2017-08-20T15:05:09.881Z,5.70
2017-08-20T15:07:36.440Z,4.70
2017-08-20T15:10:03.024Z,3.83
2017-08-20T15:12:29.843Z,5.13
2017-08-20T15:14:56.418Z,4.20
2017-08-20T15:17:29.367Z,4.37
2017-08-20T15:19:58.660Z,6.00
2017-08-20T15:22:29.170Z,2.67
2017-08-20T15:24:55.925Z,2.90
2017-08-20T15:27:28.982Z,3.83
2017-08-20T15:29:55.703Z,5.33
2017-08-20T15:32:22.307Z,5.00
2017-08-20T15:34:48.991Z,5.30
2017-08-20T15:37:15.636Z,2.23
2017-08-20T15:39:42.281Z,4.77
2017-08-20T15:42:08.888Z,6.20
2017-08-20T15:44:35.455Z,5.37
2017-08-20T15:47:02.050Z,4.50
2017-08-20T15:49:28.644Z,3.20
2017-08-20T15:51:55.212Z,3.60
2017-08-20T15:54:21.797Z,4.83
2017-08-20T15:56:48.524Z,10.07
2017-08-20T15:59:15.097Z,5.33
2017-08-20T16:01:41.672Z,3.83
2017-08-20T16:04:08.400Z,4.50
2017-08-20T16:06:34.981Z,4.20
2017-08-20T16:09:01.584Z,4.10
2017-08-20T16:11:28.523Z,2.77
2017-08-20T16:13:55.109Z,3.23
2017-08-20T16:16:21.781Z,6.83
2017-08-20T16:18:48.701Z,8.60
2017-08-20T16:21:15.269Z,3.07
2017-08-20T16:23:41.842Z,3.80
2017-08-20T16:26:08.520Z,2.90
2017-08-20T16:28:35.080Z,5.90
2017-08-20T16:31:01.654Z,3.33
2017-08-20T16:33:28.247Z,5.03
2017-08-20T16:35:54.908Z,3.20
2017-08-20T16:38:21.501Z,7.23
2017-08-20T16:40:48.212Z,15.33
2017-08-20T16:43:14.810Z,5.57
2017-08-20T16:45:41.388Z,2.27
2017-08-20T16:48:08.067Z,5.37
2017-08-20T16:50:34.640Z,2.97
2017-08-20T16:53:01.220Z,3.37
2017-08-20T16:55:27.833Z,5.10
2017-08-20T16:57:54.412Z,4.80
2017-08-20T17:00:21.002Z,5.77
2017-08-20T17:02:47.581Z,2.97
2017-08-20T17:05:21.308Z,4.60
2017-08-20T17:07:48.052Z,3.73
2017-08-20T17:10:14.620Z,3.70
2017-08-20T17:12:41.198Z,7.83
2017-08-20T17:15:07.964Z,6.17
2017-08-20T17:17:34.532Z,5.00
2017-08-20T17:20:01.115Z,5.30
2017-08-20T17:22:27.804Z,5.60
2017-08-20T17:24:54.368Z,4.77
2017-08-20T17:27:20.942Z,7.63
2017-08-20T17:29:47.536Z,4.67
2017-08-20T17:32:14.105Z,8.03
2017-08-20T17:34:40.672Z,5.90
2017-08-20T17:37:07.360Z,8.50
2017-08-20T17:39:33.912Z,5.93
2017-08-20T17:42:00.498Z,4.37
2017-08-20T17:44:27.180Z,8.77
2017-08-20T17:46:53.754Z,6.97
2017-08-20T17:49:20.320Z,4.87
2017-08-20T17:51:46.907Z,4.40
2017-08-20T17:54:13.482Z,5.10
2017-08-20T17:56:40.052Z,9.57
2017-08-20T17:59:06.976Z,4.43
2017-08-20T18:01:33.549Z,9.10
2017-08-20T18:04:00.128Z,6.03
2017-08-20T18:06:26.733Z,11.40
2017-08-20T18:08:53.343Z,9.00
2017-08-20T18:11:19.910Z,6.40
2017-08-20T18:13:46.636Z,6.13
2017-08-20T18:16:13.214Z,6.50
2017-08-20T18:18:39.816Z,6.10
2017-08-20T18:21:06.496Z,3.40
2017-08-20T18:23:33.079Z,4.27
2017-08-20T18:25:59.660Z,7.57
2017-08-20T18:28:26.634Z,7.90
2017-08-20T18:30:53.231Z,5.83
2017-08-20T18:33:19.840Z,8.23
2017-08-20T18:35:46.428Z,8.30
2017-08-20T18:38:13.008Z,11.07
2017-08-20T18:40:39.623Z,8.27
2017-08-20T18:43:06.416Z,6.47
2017-08-20T18:45:32.997Z,9.80
2017-08-20T18:47:59.573Z,7.03
2017-08-20T18:50:26.195Z,12.30
2017-08-20T19:09:45.988Z,6.30
2017-08-20T19:12:28.602Z,8.47
2017-08-20T19:18:09.991Z,11.47
2017-08-20T19:23:45.112Z,6.10
2017-08-20T19:26:36.028Z,8.80
2017-08-20T19:34:51.754Z,8.10
2017-08-20T19:37:31.566Z,7.30
2017-08-20T19:39:58.877Z,7.00
2017-08-20T19:42:33.183Z,7.93
2017-08-20T19:45:03.011Z,8.77
2017-08-20T19:47:32.732Z,7.10
2017-08-20T19:50:03.977Z,8.77
2017-08-20T19:56:26.389Z,7.77
2017-08-20T19:59:02.687Z,7.07
2017-08-20T20:01:33.353Z,7.20
2017-08-20T20:04:01.462Z,5.90
2017-08-20T20:06:35.300Z,6.77
2017-08-20T20:09:02.050Z,6.70
2017-08-20T20:11:28.621Z,8.77
2017-08-20T20:13:55.193Z,9.40
2017-08-20T20:16:21.931Z,6.83
2017-08-20T20:18:48.497Z,9.83
2017-08-20T20:21:15.088Z,7.13
2017-08-20T20:23:42.016Z,8.30
2017-08-20T20:26:08.596Z,18.43
2017-08-20T20:28:35.170Z,5.03
2017-08-20T20:31:01.788Z,10.40
2017-08-20T20:33:28.364Z,12.50
2017-08-20T20:35:54.936Z,7.47
2017-08-20T20:38:21.583Z,7.10
2017-08-20T20:40:48.132Z,6.83
2017-08-20T20:43:14.720Z,11.03
2017-08-20T20:45:41.620Z,6.80
2017-08-20T20:48:08.197Z,11.03
2017-08-20T20:50:34.769Z,8.93
2017-08-20T20:53:01.501Z,7.03
2017-08-20T20:55:28.068Z,9.23
2017-08-20T20:57:54.644Z,8.50
2017-08-20T21:00:21.405Z,11.97
2017-08-20T21:02:47.972Z,12.20
2017-08-20T21:05:14.554Z,6.20
2017-08-20T21:07:41.145Z,8.57
2017-08-20T21:10:07.723Z,9.40
2017-08-20T21:12:34.289Z,9.23
2017-08-20T21:15:00.968Z,7.73
2017-08-20T21:17:27.555Z,11.97
2017-08-20T21:19:54.130Z,12.10
2017-08-20T21:22:20.776Z,9.73
2017-08-20T21:24:47.395Z,9.57
2017-08-20T21:27:13.968Z,9.60
2017-08-20T21:29:40.656Z,10.40
2017-08-20T21:32:07.237Z,11.40
2017-08-20T21:34:33.869Z,18.27
2017-08-20T21:37:00.472Z,8.77
2017-08-20T21:39:27.044Z,9.70
2017-08-20T21:41:53.628Z,8.43
2017-08-20T21:44:20.215Z,12.47
2017-08-20T21:46:46.789Z,9.73
2017-08-20T21:49:13.362Z,8.60
2017-08-20T21:51:40.036Z,8.20
2017-08-20T21:54:06.733Z,12.30
2017-08-20T21:56:33.309Z,9.63
2017-08-20T21:58:59.945Z,11.77
2017-08-20T22:01:26.532Z,7.60
2017-08-20T22:03:53.084Z,6.20
2017-08-20T22:06:19.856Z,11.47
2017-08-20T22:08:46.405Z,6.23
2017-08-20T22:11:13.072Z,9.70
2017-08-20T22:13:39.689Z,9.47
2017-08-20T22:16:06.239Z,8.73
2017-08-20T22:18:32.816Z,11.20
2017-08-20T22:20:59.411Z,8.10
2017-08-20T22:23:26.016Z,14.37
2017-08-20T22:25:52.589Z,7.83
2017-08-20T22:28:19.268Z,9.00
2017-08-20T22:30:45.846Z,5.97
2017-08-20T22:33:12.412Z,9.60
2017-08-20T22:35:39.032Z,11.60
2017-08-20T22:38:05.612Z,10.13
2017-08-20T22:40:32.178Z,9.80
2017-08-20T22:42:59.184Z,8.87
2017-08-20T22:45:25.759Z,7.40
2017-08-20T22:47:52.336Z,6.83
2017-08-20T22:50:18.978Z,11.90
2017-08-20T22:52:45.530Z,8.90
2017-08-20T22:55:12.097Z,7.87
2017-08-20T22:57:39.115Z,12.50
2017-08-20T23:00:05.690Z,7.73
2017-08-20T23:02:32.269Z,8.47
2017-08-20T23:04:58.996Z,8.17
2017-08-20T23:07:25.645Z,8.60
2017-08-20T23:09:52.209Z,9.50
2017-08-20T23:12:18.955Z,13.03
2017-08-20T23:14:45.529Z,10.27
2017-08-20T23:17:12.105Z,13.27
2017-08-20T23:19:38.709Z,11.97
2017-08-20T23:22:05.286Z,9.00
2017-08-20T23:24:31.857Z,9.53
2017-08-20T23:26:58.604Z,18.30
2017-08-20T23:29:25.172Z,10.03
2017-08-20T23:32:22.120Z,10.23
2017-08-20T23:34:48.693Z,12.50
2017-08-20T23:37:15.276Z,10.93
2017-08-20T23:39:41.994Z,10.97
2017-08-20T23:42:08.657Z,12.60
2017-08-20T23:44:35.246Z,14.00
2017-08-20T23:47:01.935Z,13.20
2017-08-20T23:49:28.518Z,12.10
2017-08-20T23:51:55.083Z,11.70
2017-08-20T23:54:21.685Z,13.43
2017-08-20T23:56:48.252Z,13.20
2017-08-20T23:59:14.824Z,15.37
